sensor_id;sensor_type;location;lat;lon;timestamp;temperature;humidity
18252;DHT22;26917;52.328;20.878;2022-12-24T00:01:10;4.60;99.90
18252;DHT22;26917;52.328;20.878;2022-12-24T00:04:09;4.60;99.90
18252;DHT22;26917;52.328;20.878;2022-12-24T00:10:11;4.60;99.90
18252;DHT22;26917;52.328;20.878;2022-12-24T00:13:08;4.60;99.90
18252;DHT22;26917;52.328;20.878;2022-12-24T00:15:57;4.60;99.90
18252;DHT22;26917;52.328;20.878;2022-12-24T00:18:45;4.60;99.90
18252;DHT22;26917;52.328;20.878;2022-12-24T00:22:25;4.60;99.90
18252;DHT22;26917;52.328;20.878;2022-12-24T00:25:42;4.60;99.90
18252;DHT22;26917;52.328;20.878;2022-12-24T00:28:39;4.60;99.90
18252;DHT22;26917;52.328;20.878;2022-12-24T00:31:32;4.60;99.90
18252;DHT22;26917;52.328;20.878;2022-12-24T00:34:36;4.60;99.90
18252;DHT22;26917;52.328;20.878;2022-12-24T00:38:00;4.50;99.90
18252;DHT22;26917;52.328;20.878;2022-12-24T00:41:12;4.60;99.90
18252;DHT22;26917;52.328;20.878;2022-12-24T00:44:32;4.60;99.90
18252;DHT22;26917;52.328;20.878;2022-12-24T00:47:23;4.60;99.90
18252;DHT22;26917;52.328;20.878;2022-12-24T00:50:07;4.60;99.90
18252;DHT22;26917;52.328;20.878;2022-12-24T00:53:15;4.60;99.90
18252;DHT22;26917;52.328;20.878;2022-12-24T00:56:34;5.30;99.90
18252;DHT22;26917;52.328;20.878;2022-12-24T00:59:41;4.40;99.90
18252;DHT22;26917;52.328;20.878;2022-12-24T01:03:06;4.70;99.90
18252;DHT22;26917;52.328;20.878;2022-12-24T01:06:13;4.50;99.90
18252;DHT22;26917;52.328;20.878;2022-12-24T01:09:10;4.70;99.90
18252;DHT22;26917;52.328;20.878;2022-12-24T01:12:33;4.60;99.90
18252;DHT22;26917;52.328;20.878;2022-12-24T01:15:40;4.70;99.90
18252;DHT22;26917;52.328;20.878;2022-12-24T01:18:37;4.70;99.90
18252;DHT22;26917;52.328;20.878;2022-12-24T01:21:23;4.70;99.90
18252;DHT22;26917;52.328;20.878;2022-12-24T01:24:04;4.70;99.90
18252;DHT22;26917;52.328;20.878;2022-12-24T01:30:31;4.30;99.90
18252;DHT22;26917;52.328;20.878;2022-12-24T01:41:39;3.80;99.90
18252;DHT22;26917;52.328;20.878;2022-12-24T01:43:54;4.70;99.90
18252;DHT22;26917;52.328;20.878;2022-12-24T01:47:06;4.70;99.90
18252;DHT22;26917;52.328;20.878;2022-12-24T01:50:25;4.70;99.90
18252;DHT22;26917;52.328;20.878;2022-12-24T01:53:36;4.70;99.90
18252;DHT22;26917;52.328;20.878;2022-12-24T01:56:36;4.60;99.90
18252;DHT22;26917;52.328;20.878;2022-12-24T02:03:03;4.70;99.90
18252;DHT22;26917;52.328;20.878;2022-12-24T02:06:16;4.80;99.90
18252;DHT22;26917;52.328;20.878;2022-12-24T02:09:25;4.70;99.90
18252;DHT22;26917;52.328;20.878;2022-12-24T02:12:11;4.70;99.90
18252;DHT22;26917;52.328;20.878;2022-12-24T02:23:52;4.60;99.90
18252;DHT22;26917;52.328;20.878;2022-12-24T02:31:37;4.60;99.90
18252;DHT22;26917;52.328;20.878;2022-12-24T04:32:39;4.50;99.90
18252;DHT22;26917;52.328;20.878;2022-12-24T04:36:07;4.60;99.90
18252;DHT22;26917;52.328;20.878;2022-12-24T04:39:28;4.50;99.90
18252;DHT22;26917;52.328;20.878;2022-12-24T04:42:43;4.70;99.90
18252;DHT22;26917;52.328;20.878;2022-12-24T04:45:54;4.50;99.90
18252;DHT22;26917;52.328;20.878;2022-12-24T04:50:02;4.60;99.90
18252;DHT22;26917;52.328;20.878;2022-12-24T04:53:28;4.50;99.90
18252;DHT22;26917;52.328;20.878;2022-12-24T04:56:18;4.50;99.90
18252;DHT22;26917;52.328;20.878;2022-12-24T04:59:06;4.50;99.90
18252;DHT22;26917;52.328;20.878;2022-12-24T05:02:05;4.50;99.90
18252;DHT22;26917;52.328;20.878;2022-12-24T05:05:05;4.50;99.90
18252;DHT22;26917;52.328;20.878;2022-12-24T05:11:19;4.90;99.90
18252;DHT22;26917;52.328;20.878;2022-12-24T05:14:11;5.30;99.90
18252;DHT22;26917;52.328;20.878;2022-12-24T05:17:08;4.50;99.90
18252;DHT22;26917;52.328;20.878;2022-12-24T05:19:57;4.50;99.90
18252;DHT22;26917;52.328;20.878;2022-12-24T05:22:39;4.50;99.90
18252;DHT22;26917;52.328;20.878;2022-12-24T05:29:04;4.50;99.90
18252;DHT22;26917;52.328;20.878;2022-12-24T05:32:17;4.50;99.90
18252;DHT22;26917;52.328;20.878;2022-12-24T05:35:46;4.70;99.90
18252;DHT22;26917;52.328;20.878;2022-12-24T05:39:00;4.50;99.90
18252;DHT22;26917;52.328;20.878;2022-12-24T05:53:06;4.50;99.90
18252;DHT22;26917;52.328;20.878;2022-12-24T05:56:16;4.90;99.90
18252;DHT22;26917;52.328;20.878;2022-12-24T05:59:16;4.70;99.90
18252;DHT22;26917;52.328;20.878;2022-12-24T06:02:09;4.40;99.90
18252;DHT22;26917;52.328;20.878;2022-12-24T06:04:57;4.40;99.90
18252;DHT22;26917;52.328;20.878;2022-12-24T06:08:21;4.40;99.90
18252;DHT22;26917;52.328;20.878;2022-12-24T06:15:08;4.40;99.90
18252;DHT22;26917;52.328;20.878;2022-12-24T06:18:12;4.30;99.90
18252;DHT22;26917;52.328;20.878;2022-12-24T06:21:00;4.30;99.90
18252;DHT22;26917;52.328;20.878;2022-12-24T06:24:23;4.50;99.90
18252;DHT22;26917;52.328;20.878;2022-12-24T06:27:24;4.30;99.90
18252;DHT22;26917;52.328;20.878;2022-12-24T06:33:58;4.30;99.90
18252;DHT22;26917;52.328;20.878;2022-12-24T06:37:10;4.30;99.90
18252;DHT22;26917;52.328;20.878;2022-12-24T06:40:42;4.30;99.90
18252;DHT22;26917;52.328;20.878;2022-12-24T06:43:47;4.30;99.90
18252;DHT22;26917;52.328;20.878;2022-12-24T06:47:34;4.30;99.90
18252;DHT22;26917;52.328;20.878;2022-12-24T06:50:39;4.50;99.90
18252;DHT22;26917;52.328;20.878;2022-12-24T06:53:48;4.30;99.90
18252;DHT22;26917;52.328;20.878;2022-12-24T06:56:56;4.50;99.90
18252;DHT22;26917;52.328;20.878;2022-12-24T07:00:30;4.30;99.90
18252;DHT22;26917;52.328;20.878;2022-12-24T07:03:40;4.20;99.90
18252;DHT22;26917;52.328;20.878;2022-12-24T07:06:36;4.30;99.90
18252;DHT22;26917;52.328;20.878;2022-12-24T07:09:37;4.30;99.90
18252;DHT22;26917;52.328;20.878;2022-12-24T07:12:34;4.30;99.90
18252;DHT22;26917;52.328;20.878;2022-12-24T07:15:16;4.30;99.90
18252;DHT22;26917;52.328;20.878;2022-12-24T07:18:28;4.30;99.90
18252;DHT22;26917;52.328;20.878;2022-12-24T07:21:36;4.60;99.90
18252;DHT22;26917;52.328;20.878;2022-12-24T07:25:07;4.30;99.90
18252;DHT22;26917;52.328;20.878;2022-12-24T07:33:06;4.30;99.90
18252;DHT22;26917;52.328;20.878;2022-12-24T07:36:06;4.20;99.90
18252;DHT22;26917;52.328;20.878;2022-12-24T07:39:00;4.30;99.90
18252;DHT22;26917;52.328;20.878;2022-12-24T07:41:33;4.30;99.90
18252;DHT22;26917;52.328;20.878;2022-12-24T07:44:27;4.30;99.90
18252;DHT22;26917;52.328;20.878;2022-12-24T07:47:16;4.10;99.90
18252;DHT22;26917;52.328;20.878;2022-12-24T07:50:00;4.20;99.90
18252;DHT22;26917;52.328;20.878;2022-12-24T07:52:46;4.30;99.90
18252;DHT22;26917;52.328;20.878;2022-12-24T07:55:27;4.30;99.90
18252;DHT22;26917;52.328;20.878;2022-12-24T07:58:24;4.20;99.90
18252;DHT22;26917;52.328;20.878;2022-12-24T08:04:42;4.20;99.90
18252;DHT22;26917;52.328;20.878;2022-12-24T08:07:45;4.20;99.90
18252;DHT22;26917;52.328;20.878;2022-12-24T08:10:26;4.20;99.90
18252;DHT22;26917;52.328;20.878;2022-12-24T08:13:00;4.10;99.90
18252;DHT22;26917;52.328;20.878;2022-12-24T08:15:42;4.20;99.90
18252;DHT22;26917;52.328;20.878;2022-12-24T08:18:19;4.20;99.90
18252;DHT22;26917;52.328;20.878;2022-12-24T08:20:54;4.30;99.90
18252;DHT22;26917;52.328;20.878;2022-12-24T08:26:54;4.60;99.90
18252;DHT22;26917;52.328;20.878;2022-12-24T08:29:54;4.30;99.90
18252;DHT22;26917;52.328;20.878;2022-12-24T08:32:37;4.30;99.90
18252;DHT22;26917;52.328;20.878;2022-12-24T08:36:17;4.30;99.90
18252;DHT22;26917;52.328;20.878;2022-12-24T08:38:58;4.30;99.90
18252;DHT22;26917;52.328;20.878;2022-12-24T08:41:30;4.30;99.90
18252;DHT22;26917;52.328;20.878;2022-12-24T08:44:09;4.40;99.90
18252;DHT22;26917;52.328;20.878;2022-12-24T08:46:47;4.40;99.90
18252;DHT22;26917;52.328;20.878;2022-12-24T08:49:22;4.40;99.90
18252;DHT22;26917;52.328;20.878;2022-12-24T08:52:11;4.40;99.90
18252;DHT22;26917;52.328;20.878;2022-12-24T08:55:08;4.50;99.90
18252;DHT22;26917;52.328;20.878;2022-12-24T08:58:25;4.50;99.90
18252;DHT22;26917;52.328;20.878;2022-12-24T09:01:11;4.50;99.90
18252;DHT22;26917;52.328;20.878;2022-12-24T09:04:07;3.60;99.90
18252;DHT22;26917;52.328;20.878;2022-12-24T09:07:55;4.50;99.90
18252;DHT22;26917;52.328;20.878;2022-12-24T09:10:32;4.50;99.90
18252;DHT22;26917;52.328;20.878;2022-12-24T09:13:35;4.50;99.90
18252;DHT22;26917;52.328;20.878;2022-12-24T09:16:25;4.80;99.90
18252;DHT22;26917;52.328;20.878;2022-12-24T09:19:46;4.40;99.90
18252;DHT22;26917;52.328;20.878;2022-12-24T09:23:15;4.50;99.90
18252;DHT22;26917;52.328;20.878;2022-12-24T09:25:54;4.40;99.90
18252;DHT22;26917;52.328;20.878;2022-12-24T09:34:42;4.50;99.90
18252;DHT22;26917;52.328;20.878;2022-12-24T09:36:17;4.40;99.90
18252;DHT22;26917;52.328;20.878;2022-12-24T09:40:24;4.50;99.90
18252;DHT22;26917;52.328;20.878;2022-12-24T09:44:07;4.50;99.90
18252;DHT22;26917;52.328;20.878;2022-12-24T09:55:19;4.50;99.90
18252;DHT22;26917;52.328;20.878;2022-12-24T10:28:30;4.80;99.90
18252;DHT22;26917;52.328;20.878;2022-12-24T10:41:29;4.70;99.90
18252;DHT22;26917;52.328;20.878;2022-12-24T11:56:11;4.50;99.90
18252;DHT22;26917;52.328;20.878;2022-12-24T12:29:05;4.60;99.90
18252;DHT22;26917;52.328;20.878;2022-12-24T12:37:02;4.60;99.90
18252;DHT22;26917;52.328;20.878;2022-12-24T12:40:56;4.60;99.90
18252;DHT22;26917;52.328;20.878;2022-12-24T12:51:54;4.60;99.90
18252;DHT22;26917;52.328;20.878;2022-12-24T13:52:51;4.30;99.90
18252;DHT22;26917;52.328;20.878;2022-12-24T14:03:51;4.40;99.90
18252;DHT22;26917;52.328;20.878;2022-12-24T14:12:12;4.20;99.90
18252;DHT22;26917;52.328;20.878;2022-12-24T14:41:44;3.70;99.90
18252;DHT22;26917;52.328;20.878;2022-12-24T15:09:02;3.70;99.90
18252;DHT22;26917;52.328;20.878;2022-12-24T15:13:46;3.70;99.90
18252;DHT22;26917;52.328;20.878;2022-12-24T16:40:54;3.40;99.90
18252;DHT22;26917;52.328;20.878;2022-12-24T16:47:52;3.40;99.90
18252;DHT22;26917;52.328;20.878;2022-12-24T16:51:05;3.30;99.90
18252;DHT22;26917;52.328;20.878;2022-12-24T16:54:56;3.40;99.90
18252;DHT22;26917;52.328;20.878;2022-12-24T17:31:53;3.30;99.90
18252;DHT22;26917;52.328;20.878;2022-12-24T17:39:20;3.20;99.90
18252;DHT22;26917;52.328;20.878;2022-12-24T18:01:51;3.10;99.90
18252;DHT22;26917;52.328;20.878;2022-12-24T18:04:54;3.10;99.90
18252;DHT22;26917;52.328;20.878;2022-12-24T18:12:32;3.10;99.90
18252;DHT22;26917;52.328;20.878;2022-12-24T18:24:16;3.00;99.90
18252;DHT22;26917;52.328;20.878;2022-12-24T18:27:46;3.10;99.90
18252;DHT22;26917;52.328;20.878;2022-12-24T18:34:55;3.10;99.90
18252;DHT22;26917;52.328;20.878;2022-12-24T18:38:03;3.20;99.90
18252;DHT22;26917;52.328;20.878;2022-12-24T18:41:12;3.20;99.90
18252;DHT22;26917;52.328;20.878;2022-12-24T18:44:05;3.10;99.90
18252;DHT22;26917;52.328;20.878;2022-12-24T18:46:53;3.00;99.90
18252;DHT22;26917;52.328;20.878;2022-12-24T18:49:45;3.00;99.90
18252;DHT22;26917;52.328;20.878;2022-12-24T18:52:53;3.00;99.90
18252;DHT22;26917;52.328;20.878;2022-12-24T18:55:45;2.90;99.90
18252;DHT22;26917;52.328;20.878;2022-12-24T18:58:26;3.20;99.90
18252;DHT22;26917;52.328;20.878;2022-12-24T19:01:16;3.00;99.90
18252;DHT22;26917;52.328;20.878;2022-12-24T19:03:59;2.90;99.90
18252;DHT22;26917;52.328;20.878;2022-12-24T19:06:58;2.90;99.90
18252;DHT22;26917;52.328;20.878;2022-12-24T19:10:20;3.10;99.90
18252;DHT22;26917;52.328;20.878;2022-12-24T19:13:19;3.00;99.90
18252;DHT22;26917;52.328;20.878;2022-12-24T19:16:32;2.90;99.90
18252;DHT22;26917;52.328;20.878;2022-12-24T19:19:33;2.90;99.90
18252;DHT22;26917;52.328;20.878;2022-12-24T19:23:07;2.90;99.90
18252;DHT22;26917;52.328;20.878;2022-12-24T19:26:28;2.90;99.90
18252;DHT22;26917;52.328;20.878;2022-12-24T19:31:03;2.90;99.90
18252;DHT22;26917;52.328;20.878;2022-12-24T19:34:02;2.90;99.90
18252;DHT22;26917;52.328;20.878;2022-12-24T19:37:16;3.00;99.90
18252;DHT22;26917;52.328;20.878;2022-12-24T19:44:31;2.90;99.90
18252;DHT22;26917;52.328;20.878;2022-12-24T19:51:53;2.90;99.90
18252;DHT22;26917;52.328;20.878;2022-12-24T19:55:09;2.90;99.90
18252;DHT22;26917;52.328;20.878;2022-12-24T20:18:42;2.60;99.90
18252;DHT22;26917;52.328;20.878;2022-12-24T20:22:02;2.80;99.90
18252;DHT22;26917;52.328;20.878;2022-12-24T20:24:53;2.80;99.90
18252;DHT22;26917;52.328;20.878;2022-12-24T20:34:37;2.80;99.90
18252;DHT22;26917;52.328;20.878;2022-12-24T20:38:08;2.80;99.90
18252;DHT22;26917;52.328;20.878;2022-12-24T20:44:32;2.80;99.90
18252;DHT22;26917;52.328;20.878;2022-12-24T20:52:58;2.80;99.90
18252;DHT22;26917;52.328;20.878;2022-12-24T20:58:19;2.70;99.90
18252;DHT22;26917;52.328;20.878;2022-12-24T21:24:50;2.80;99.90
18252;DHT22;26917;52.328;20.878;2022-12-24T21:28:58;2.80;99.90
18252;DHT22;26917;52.328;20.878;2022-12-24T21:32:57;2.70;99.90
18252;DHT22;26917;52.328;20.878;2022-12-24T21:36:19;2.70;99.90
18252;DHT22;26917;52.328;20.878;2022-12-24T21:39:57;2.70;99.90
18252;DHT22;26917;52.328;20.878;2022-12-24T21:43:23;2.70;99.90
18252;DHT22;26917;52.328;20.878;2022-12-24T21:49:43;2.80;99.90
18252;DHT22;26917;52.328;20.878;2022-12-24T21:53:17;2.70;99.90
18252;DHT22;26917;52.328;20.878;2022-12-24T21:57:03;2.70;99.90
18252;DHT22;26917;52.328;20.878;2022-12-24T22:00:34;2.70;99.90
18252;DHT22;26917;52.328;20.878;2022-12-24T22:04:21;2.70;99.90
18252;DHT22;26917;52.328;20.878;2022-12-24T22:11:54;2.80;99.90
18252;DHT22;26917;52.328;20.878;2022-12-24T22:15:11;2.70;99.90
18252;DHT22;26917;52.328;20.878;2022-12-24T22:18:11;2.60;99.90
18252;DHT22;26917;52.328;20.878;2022-12-24T22:21:29;2.80;99.90
18252;DHT22;26917;52.328;20.878;2022-12-24T22:24:35;2.70;99.90
18252;DHT22;26917;52.328;20.878;2022-12-24T22:27:56;3.00;99.90
18252;DHT22;26917;52.328;20.878;2022-12-24T22:31:03;2.70;99.90
18252;DHT22;26917;52.328;20.878;2022-12-24T22:38:10;2.70;99.90
18252;DHT22;26917;52.328;20.878;2022-12-24T22:40:55;2.70;99.90
18252;DHT22;26917;52.328;20.878;2022-12-24T22:47:46;2.70;99.90
18252;DHT22;26917;52.328;20.878;2022-12-24T22:50:39;2.70;99.90
18252;DHT22;26917;52.328;20.878;2022-12-24T22:53:47;2.80;99.90
18252;DHT22;26917;52.328;20.878;2022-12-24T22:57:26;2.90;99.90
18252;DHT22;26917;52.328;20.878;2022-12-24T23:00:17;2.30;99.90
18252;DHT22;26917;52.328;20.878;2022-12-24T23:04:13;3.10;99.90
18252;DHT22;26917;52.328;20.878;2022-12-24T23:07:59;2.60;99.90
18252;DHT22;26917;52.328;20.878;2022-12-24T23:11:17;2.60;99.90
18252;DHT22;26917;52.328;20.878;2022-12-24T23:19:44;2.60;99.90
18252;DHT22;26917;52.328;20.878;2022-12-24T23:27:06;2.60;99.90
18252;DHT22;26917;52.328;20.878;2022-12-24T23:34:31;2.60;99.90
18252;DHT22;26917;52.328;20.878;2022-12-24T23:38:09;2.60;99.90
18252;DHT22;26917;52.328;20.878;2022-12-24T23:58:26;2.60;99.90
